Time;durP1;ratioP1;P1;durP2;ratioP2;P2;SDS_P1;SDS_P2;PMS_P1;PMS_P2;Temp;Humidity;BMP_temperature;BMP_pressure;BME280_temperature;BME280_humidity;BME280_pressure;Samples;Min_cycle;Max_cycle;Signal;HPM_P1;HPM_P2
2021/10/23 00:02:17;;;;;;;139.70;72.90;;;;;;;5.58;100.00;102357.06;5014551;28;20384;-69
2021/10/23 00:04:42;;;;;;;149.05;73.40;;;;;;;5.64;100.00;102366.06;5026038;28;20049;-67
2021/10/23 00:07:08;;;;;;;162.57;77.20;;;;;;;5.66;100.00;102362.66;5023147;28;20033;-68
2021/10/23 00:09:33;;;;;;;148.88;75.90;;;;;;;5.71;100.00;102365.53;5013969;28;20034;-68
2021/10/23 00:11:58;;;;;;;148.80;75.30;;;;;;;5.73;100.00;102361.25;5013988;28;20465;-68
2021/10/23 00:14:24;;;;;;;147.13;76.63;;;;;;;5.75;100.00;102362.22;5023438;28;20372;-63
2021/10/23 00:16:49;;;;;;;155.13;76.28;;;;;;;5.77;100.00;102363.22;5025432;28;20487;-63
2021/10/23 00:19:14;;;;;;;157.77;78.15;;;;;;;5.79;100.00;102379.91;5019454;28;20026;-63
2021/10/23 00:21:40;;;;;;;147.55;75.65;;;;;;;5.82;100.00;102379.16;5025994;28;20021;-63
2021/10/23 00:24:05;;;;;;;152.57;74.95;;;;;;;5.83;100.00;102375.72;5022334;28;20032;-63
2021/10/23 00:26:30;;;;;;;148.93;75.45;;;;;;;5.86;100.00;102375.88;5024292;28;20026;-63
2021/10/23 00:28:56;;;;;;;148.90;74.95;;;;;;;5.87;100.00;102378.56;5022267;28;20472;-63
2021/10/23 00:31:21;;;;;;;155.07;79.28;;;;;;;5.89;100.00;102383.88;5022964;28;20022;-63
2021/10/23 00:33:46;;;;;;;155.50;77.15;;;;;;;5.92;100.00;102384.91;5024870;28;20026;-63
2021/10/23 00:36:12;;;;;;;157.98;78.90;;;;;;;5.95;100.00;102389.44;5022117;28;20030;-63
2021/10/23 00:38:38;;;;;;;153.27;77.65;;;;;;;5.97;100.00;102392.13;5017771;28;20373;-63
2021/10/23 00:41:03;;;;;;;160.25;78.15;;;;;;;6.00;100.00;102397.56;5025307;28;20033;-64
2021/10/23 00:43:28;;;;;;;163.57;82.00;;;;;;;6.02;100.00;102390.66;5023137;28;20030;-63
2021/10/23 00:45:54;;;;;;;171.52;82.05;;;;;;;6.02;100.00;102388.94;5021943;28;20088;-63
2021/10/23 00:48:19;;;;;;;164.27;82.05;;;;;;;6.01;100.00;102394.09;5024277;28;20033;-63
2021/10/23 00:50:46;;;;;;;166.80;83.82;;;;;;;6.01;100.00;102388.84;5023220;28;20490;-63
2021/10/23 00:53:13;;;;;;;171.15;83.28;;;;;;;5.97;100.00;102394.75;5022729;28;20048;-63
2021/10/23 00:55:39;;;;;;;178.45;84.88;;;;;;;5.92;100.00;102400.66;5024012;28;20026;-63
2021/10/23 00:58:05;;;;;;;164.25;83.93;;;;;;;5.91;100.00;102397.97;5021745;28;20057;-69
2021/10/23 01:00:30;;;;;;;167.13;85.25;;;;;;;5.89;100.00;102395.28;5023289;28;20080;-69
2021/10/23 01:02:56;;;;;;;186.85;89.05;;;;;;;5.91;100.00;102393.66;5021951;28;20026;-69
2021/10/23 01:05:22;;;;;;;186.57;91.32;;;;;;;5.89;100.00;102390.03;5024385;28;20076;-70
2021/10/23 01:07:49;;;;;;;196.60;92.15;;;;;;;5.91;100.00;102400.59;5022648;28;20417;-69
2021/10/23 01:10:14;;;;;;;188.82;94.70;;;;;;;5.91;100.00;102384.84;5023111;28;20018;-69
2021/10/23 01:12:44;;;;;;;202.82;95.97;;;;;;;5.93;100.00;102391.09;5023446;28;20083;-69
2021/10/23 01:15:38;;;;;;;214.50;98.50;;;;;;;6.02;100.00;102393.28;5013214;28;20029;-69
2021/10/23 01:18:07;;;;;;;224.60;98.00;;;;;;;6.04;100.00;102389.00;5002461;28;20041;-69
2021/10/23 01:20:34;;;;;;;221.40;102.30;;;;;;;6.11;100.00;102388.47;4999540;28;20037;-69
2021/10/23 01:22:59;;;;;;;229.88;101.50;;;;;;;6.10;100.00;102394.53;5002894;28;20078;-70
2021/10/23 01:25:27;;;;;;;217.50;102.07;;;;;;;6.11;100.00;102393.72;4999392;28;20134;-69
2021/10/23 01:27:57;;;;;;;221.02;98.47;;;;;;;6.08;100.00;102385.69;5002034;28;20037;-70
2021/10/23 01:30:25;;;;;;;215.32;98.38;;;;;;;6.08;100.00;102393.56;4999937;28;20034;-69
2021/10/23 01:32:52;;;;;;;222.75;97.63;;;;;;;6.05;100.00;102396.06;5001777;28;20437;-70
2021/10/23 01:35:20;;;;;;;210.45;94.43;;;;;;;6.01;100.00;102391.47;5000447;28;20042;-69
2021/10/23 01:37:47;;;;;;;208.98;94.63;;;;;;;5.97;100.00;102397.38;5001085;28;20047;-69
2021/10/23 01:40:20;;;;;;;207.95;93.85;;;;;;;5.91;100.00;102401.53;4982741;28;20030;-69
2021/10/23 01:42:46;;;;;;;213.02;94.95;;;;;;;5.92;100.00;102399.78;4999856;28;20121;-69
2021/10/23 01:45:12;;;;;;;227.55;97.03;;;;;;;5.90;100.00;102398.81;5002278;28;20413;-68
2021/10/23 01:47:40;;;;;;;220.68;95.45;;;;;;;5.86;100.00;102400.38;4999892;28;20061;-69
2021/10/23 01:50:11;;;;;;;221.48;97.60;;;;;;;5.86;100.00;102391.63;5001128;28;20026;-69
2021/10/23 01:52:38;;;;;;;215.55;96.38;;;;;;;5.75;100.00;102385.84;5000189;28;20033;-68
2021/10/23 01:55:04;;;;;;;221.80;95.32;;;;;;;5.71;100.00;102394.41;5017426;28;20045;-69
2021/10/23 01:57:29;;;;;;;224.95;96.97;;;;;;;5.64;100.00;102390.56;5022956;28;20026;-69
2021/10/23 01:59:54;;;;;;;225.93;94.18;;;;;;;5.59;100.00;102374.59;5021588;28;20050;-68
2021/10/23 02:02:21;;;;;;;222.13;96.13;;;;;;;5.58;100.00;102379.78;5024111;28;20519;-69
2021/10/23 02:04:46;;;;;;;232.13;95.00;;;;;;;5.51;100.00;102381.19;5022364;28;20037;-69
2021/10/23 02:07:11;;;;;;;246.00;98.50;;;;;;;5.50;100.00;102384.63;5016734;28;20457;-69
2021/10/23 02:09:37;;;;;;;248.63;99.18;;;;;;;5.49;100.00;102388.09;5026651;28;20531;-69
2021/10/23 02:12:02;;;;;;;250.77;101.07;;;;;;;5.48;100.00;102374.91;5026305;28;20021;-68
2021/10/23 02:14:27;;;;;;;266.83;101.53;;;;;;;5.42;100.00;102367.63;5016685;28;20034;-68
2021/10/23 02:16:53;;;;;;;260.23;100.68;;;;;;;5.39;100.00;102370.09;5016313;28;20065;-69
2021/10/23 02:19:18;;;;;;;261.38;102.18;;;;;;;5.36;100.00;102365.59;5024616;28;20025;-69
2021/10/23 02:21:44;;;;;;;266.50;102.88;;;;;;;5.39;100.00;102365.75;5023701;28;20121;-69
2021/10/23 02:24:09;;;;;;;294.00;108.40;;;;;;;5.34;100.00;102361.97;5016292;28;20030;-69
2021/10/23 02:26:35;;;;;;;298.08;106.80;;;;;;;5.26;100.00;102362.41;5016321;28;20029;-67
2021/10/23 02:29:00;;;;;;;279.58;105.13;;;;;;;5.29;100.00;102373.09;5016099;28;20028;-70
2021/10/23 02:31:26;;;;;;;264.15;107.15;;;;;;;5.29;100.00;102375.72;5024896;28;20469;-70
2021/10/23 02:33:51;;;;;;;298.15;108.20;;;;;;;5.25;100.00;102374.63;5027597;28;20542;-70
2021/10/23 02:36:16;;;;;;;307.08;109.30;;;;;;;5.21;100.00;102373.59;5024125;28;20022;-70
2021/10/23 02:38:42;;;;;;;284.48;108.15;;;;;;;5.23;100.00;102371.94;5026913;28;20036;-70
2021/10/23 02:41:07;;;;;;;319.15;114.05;;;;;;;5.19;100.00;102377.84;5026094;28;20022;-69
2021/10/23 02:43:33;;;;;;;293.58;109.28;;;;;;;5.07;100.00;102378.13;5024021;28;20053;-69
2021/10/23 02:45:58;;;;;;;257.38;100.63;;;;;;;5.00;100.00;102376.00;5024856;28;20075;-70
2021/10/23 02:48:24;;;;;;;312.45;106.90;;;;;;;4.93;100.00;102381.75;5015747;28;20030;-69
2021/10/23 02:50:49;;;;;;;471.60;117.03;;;;;;;4.89;100.00;102387.66;5025000;28;20026;-69
2021/10/23 02:53:15;;;;;;;730.58;127.47;;;;;;;4.93;100.00;102378.25;5026523;28;20079;-69
2021/10/23 02:55:40;;;;;;;628.25;123.93;;;;;;;4.99;100.00;102389.03;5023826;28;20018;-70
2021/10/23 02:58:06;;;;;;;388.20;113.50;;;;;;;5.06;100.00;102389.44;5027100;28;20029;-69
2021/10/23 03:00:31;;;;;;;313.35;108.70;;;;;;;5.11;100.00;102384.44;5023902;28;20042;-68
2021/10/23 03:02:57;;;;;;;273.50;109.72;;;;;;;5.17;100.00;102386.44;5015535;28;20069;-70
2021/10/23 03:05:23;;;;;;;360.35;120.22;;;;;;;5.24;100.00;102388.56;5015295;28;20041;-70
2021/10/23 03:07:48;;;;;;;398.98;120.15;;;;;;;5.26;100.00;102386.03;5015158;28;20030;-65
2021/10/23 03:10:14;;;;;;;352.65;119.53;;;;;;;5.27;100.00;102379.97;5023922;28;20037;-69
2021/10/23 03:12:40;;;;;;;343.67;116.20;;;;;;;5.23;100.00;102392.91;5027099;28;20028;-70
2021/10/23 03:15:06;;;;;;;310.67;115.50;;;;;;;5.23;100.00;102397.28;5023226;28;20030;-70
2021/10/23 03:17:32;;;;;;;311.55;113.85;;;;;;;5.19;100.00;102390.97;5026287;28;20034;-70
2021/10/23 03:19:57;;;;;;;325.15;117.60;;;;;;;5.18;100.00;102388.25;5025986;28;20040;-69
2021/10/23 03:22:23;;;;;;;369.15;117.35;;;;;;;5.18;100.00;102398.75;5024196;28;20087;-69
2021/10/23 03:24:49;;;;;;;333.83;114.55;;;;;;;5.10;100.00;102398.38;5015259;28;20025;-69
2021/10/23 03:27:17;;;;;;;357.33;113.22;;;;;;;5.10;100.00;102402.69;5024407;28;20469;-69
2021/10/23 03:29:44;;;;;;;365.10;118.57;;;;;;;5.07;100.00;102409.59;5024468;28;20022;-69
2021/10/23 03:32:10;;;;;;;377.35;123.18;;;;;;;5.14;100.00;102409.91;5023656;28;20022;-69
2021/10/23 03:34:35;;;;;;;375.15;123.57;;;;;;;5.24;100.00;102415.72;5026421;28;20025;-69
2021/10/23 03:37:00;;;;;;;416.98;126.30;;;;;;;5.31;100.00;102410.78;5014955;28;20029;-70
2021/10/23 03:39:25;;;;;;;426.00;127.13;;;;;;;5.34;100.00;102414.44;5014659;28;20026;-70
2021/10/23 03:41:51;;;;;;;450.40;128.05;;;;;;;5.35;100.00;102415.34;5022937;28;20488;-69
2021/10/23 03:44:16;;;;;;;434.85;128.05;;;;;;;5.42;100.00;102417.47;5024274;28;20412;-69
2021/10/23 03:46:42;;;;;;;420.05;121.88;;;;;;;5.43;100.00;102421.88;5024807;28;20542;-70
2021/10/23 03:49:07;;;;;;;457.13;125.07;;;;;;;5.43;100.00;102421.88;5014662;28;20030;-69
2021/10/23 03:51:32;;;;;;;520.72;126.28;;;;;;;5.45;100.00;102424.59;5014912;28;20118;-68
2021/10/23 03:53:58;;;;;;;519.72;125.10;;;;;;;5.47;100.00;102423.81;5022590;28;20105;-67
2021/10/23 03:56:23;;;;;;;594.65;128.75;;;;;;;5.50;100.00;102428.34;5025432;28;20063;-65
2021/10/23 03:58:49;;;;;;;563.15;127.63;;;;;;;5.52;100.00;102421.44;5023787;28;20029;-67
2021/10/23 04:01:15;;;;;;;641.28;133.75;;;;;;;5.55;100.00;102432.09;5024099;28;20058;-68
2021/10/23 04:03:40;;;;;;;516.67;124.95;;;;;;;5.57;100.00;102431.34;5024874;28;20026;-69
2021/10/23 04:06:05;;;;;;;511.25;120.30;;;;;;;5.58;100.00;102440.13;5022955;28;20022;-69
2021/10/23 04:08:31;;;;;;;669.97;133.27;;;;;;;5.57;100.00;102440.94;5025638;28;20061;-67
2021/10/23 04:10:56;;;;;;;523.42;126.40;;;;;;;5.61;100.00;102436.72;5017488;28;20034;-69
2021/10/23 04:13:21;;;;;;;607.08;126.40;;;;;;;5.59;100.00;102440.19;5014232;28;20022;-69
2021/10/23 04:15:47;;;;;;;575.47;126.30;;;;;;;5.59;100.00;102442.81;5024514;28;20030;-69
2021/10/23 04:18:12;;;;;;;505.70;119.30;;;;;;;5.61;100.00;102440.28;5024355;28;20484;-69
2021/10/23 04:20:37;;;;;;;444.00;116.85;;;;;;;5.62;100.00;102435.91;5021948;28;20034;-66
2021/10/23 04:23:03;;;;;;;526.28;122.75;;;;;;;5.64;100.00;102437.81;5013873;28;20036;-69
2021/10/23 04:25:28;;;;;;;441.33;115.45;;;;;;;5.66;100.00;102437.88;5014279;28;20124;-67
2021/10/23 04:27:53;;;;;;;476.42;120.10;;;;;;;5.64;100.00;102436.91;5013372;28;20036;-67
2021/10/23 04:30:19;;;;;;;413.60;112.80;;;;;;;5.64;100.00;102439.53;5013729;28;20061;-69
2021/10/23 04:32:44;;;;;;;427.83;113.75;;;;;;;5.69;100.00;102445.91;5014120;28;20025;-63
2021/10/23 04:35:09;;;;;;;403.98;113.90;;;;;;;5.69;100.00;102438.91;5013687;28;20075;-63
2021/10/23 04:37:35;;;;;;;419.88;114.60;;;;;;;5.71;100.00;102442.53;5013912;28;20049;-63
2021/10/23 04:40:01;;;;;;;438.25;114.15;;;;;;;5.70;100.00;102435.47;5022590;28;20025;-63
2021/10/23 04:42:26;;;;;;;426.67;111.75;;;;;;;5.68;100.00;102437.13;5025252;28;20368;-64
2021/10/23 04:44:52;;;;;;;429.90;111.90;;;;;;;5.67;100.00;102435.31;5021997;28;20492;-63
2021/10/23 04:47:17;;;;;;;440.20;112.07;;;;;;;5.67;100.00;102432.69;5013419;28;20381;-63
2021/10/23 04:49:43;;;;;;;399.83;109.57;;;;;;;5.65;100.00;102428.19;5024038;28;20040;-63
2021/10/23 04:52:08;;;;;;;395.20;107.05;;;;;;;5.64;100.00;102434.28;5023340;28;20021;-63
2021/10/23 04:54:34;;;;;;;426.60;110.95;;;;;;;5.62;100.00;102435.91;5013672;28;20029;-63
2021/10/23 04:56:59;;;;;;;399.15;107.97;;;;;;;5.61;100.00;102427.16;5017552;28;20025;-63
2021/10/23 04:59:25;;;;;;;419.63;111.63;;;;;;;5.62;100.00;102441.16;5021978;28;20401;-63
2021/10/23 05:01:51;;;;;;;424.73;111.20;;;;;;;5.58;100.00;102440.13;5025027;28;20026;-63
2021/10/23 05:04:16;;;;;;;419.08;110.35;;;;;;;5.58;100.00;102435.75;5013158;28;20539;-63
2021/10/23 05:06:41;;;;;;;400.58;111.38;;;;;;;5.61;100.00;102442.91;5024365;28;20047;-63
2021/10/23 05:09:07;;;;;;;417.65;113.53;;;;;;;5.61;100.00;102448.16;5022308;28;20033;-63
2021/10/23 05:11:32;;;;;;;423.63;110.57;;;;;;;5.57;100.00;102451.44;5013278;28;20022;-63
2021/10/23 05:13:58;;;;;;;395.77;105.22;;;;;;;5.59;100.00;102448.06;5022476;28;20030;-69
2021/10/23 05:16:23;;;;;;;428.23;112.28;;;;;;;5.58;100.00;102442.75;5024097;28;20116;-69
2021/10/23 05:18:49;;;;;;;429.73;112.05;;;;;;;5.59;100.00;102445.44;5021306;28;20473;-70
2021/10/23 05:21:18;;;;;;;423.00;106.75;;;;;;;5.57;100.00;102447.06;5024953;28;20533;-69
2021/10/23 05:23:45;;;;;;;440.48;112.80;;;;;;;5.54;100.00;102444.28;5017183;28;20030;-69
2021/10/23 05:26:11;;;;;;;443.55;109.65;;;;;;;5.53;100.00;102437.28;5024562;28;20060;-69
2021/10/23 05:28:36;;;;;;;440.20;107.43;;;;;;;5.54;100.00;102446.91;5021860;28;20029;-69
2021/10/23 05:31:01;;;;;;;493.35;115.63;;;;;;;5.47;100.00;102450.06;5021673;28;20038;-70
2021/10/23 05:33:27;;;;;;;472.92;110.30;;;;;;;5.45;100.00;102451.72;5023246;28;20051;-70
2021/10/23 05:35:52;;;;;;;485.13;113.25;;;;;;;5.41;100.00;102452.38;5021543;28;20030;-70
2021/10/23 05:38:17;;;;;;;458.30;111.00;;;;;;;5.37;100.00;102455.66;5024213;28;20096;-69
2021/10/23 05:40:43;;;;;;;518.83;114.88;;;;;;;5.29;100.00;102454.38;5016995;28;20092;-70
2021/10/23 05:43:08;;;;;;;416.70;107.25;;;;;;;5.23;100.00;102448.00;5024241;28;20372;-68
2021/10/23 05:45:33;;;;;;;519.67;108.68;;;;;;;5.12;100.00;102453.50;5021706;28;20109;-69
2021/10/23 05:47:59;;;;;;;445.83;106.18;;;;;;;5.14;100.00;102458.00;5022995;28;20076;-70
2021/10/23 05:50:24;;;;;;;589.13;112.68;;;;;;;5.09;100.00;102463.81;5022660;28;20133;-69
2021/10/23 05:52:49;;;;;;;549.75;112.95;;;;;;;5.11;100.00;102468.34;5012618;28;20026;-69
2021/10/23 05:55:15;;;;;;;640.13;116.60;;;;;;;5.05;100.00;102473.22;5021422;28;20057;-69
2021/10/23 05:57:40;;;;;;;1408.72;146.48;;;;;;;4.94;100.00;102477.03;5024449;28;20450;-69
2021/10/23 06:00:10;;;;;;;1265.68;132.40;;;;;;;4.82;100.00;102485.09;5020080;28;20060;-69
2021/10/23 06:02:37;;;;;;;1277.20;131.65;;;;;;;4.75;100.00;102476.03;5023840;28;20026;-67
2021/10/23 06:05:03;;;;;;;896.05;113.13;;;;;;;4.70;100.00;102488.88;5021649;28;20046;-68
2021/10/23 06:07:36;;;;;;;1116.63;122.72;;;;;;;4.68;100.00;102493.13;5022728;28;20422;-67
2021/10/23 06:10:04;;;;;;;1018.42;115.55;;;;;;;4.65;100.00;102497.31;5021616;28;20025;-68
2021/10/23 06:12:30;;;;;;;1009.72;124.50;;;;;;;4.68;100.00;102498.38;5022568;28;20393;-68
2021/10/23 06:14:57;;;;;;;1260.57;133.68;;;;;;;4.78;100.00;102504.13;5022118;28;20033;-67
2021/10/23 06:17:22;;;;;;;1207.75;136.27;;;;;;;4.87;100.00;102513.38;5012584;28;20109;-68
2021/10/23 06:19:48;;;;;;;1273.15;139.93;;;;;;;4.96;100.00;102512.06;5011475;28;20056;-68
2021/10/23 06:22:14;;;;;;;1230.40;139.25;;;;;;;4.99;100.00;102517.47;5019475;28;20037;-68
2021/10/23 06:24:39;;;;;;;1102.32;132.52;;;;;;;4.97;100.00;102513.88;5023458;28;20029;-67
2021/10/23 06:27:04;;;;;;;966.75;125.47;;;;;;;5.02;100.00;102522.88;5012362;28;20028;-66
2021/10/23 06:29:31;;;;;;;1252.10;137.15;;;;;;;5.06;100.00;102524.84;5023336;28;20030;-68
2021/10/23 06:31:56;;;;;;;1208.50;138.93;;;;;;;5.10;100.00;102518.03;5020613;28;20026;-68
2021/10/23 06:34:22;;;;;;;1196.72;143.63;;;;;;;5.14;100.00;102526.16;5012367;28;20030;-67
2021/10/23 06:36:47;;;;;;;1019.45;132.93;;;;;;;5.18;100.00;102527.22;5021889;28;20033;-68
2021/10/23 06:39:12;;;;;;;1090.18;138.57;;;;;;;5.21;100.00;102525.69;5022709;28;20116;-68
2021/10/23 06:41:38;;;;;;;1056.45;137.38;;;;;;;5.24;100.00;102525.84;5020052;28;20428;-66
2021/10/23 06:44:06;;;;;;;1008.60;135.30;;;;;;;5.28;100.00;102528.63;5020552;28;20033;-68
2021/10/23 06:46:32;;;;;;;661.75;120.75;;;;;;;5.35;100.00;102543.88;5023531;28;20053;-68
2021/10/23 06:48:57;;;;;;;864.85;129.85;;;;;;;5.38;100.00;102537.03;5011788;28;20126;-68
2021/10/23 06:51:23;;;;;;;672.42;121.80;;;;;;;5.42;100.00;102538.13;5025431;28;20029;-67
2021/10/23 06:53:51;;;;;;;793.40;131.38;;;;;;;5.46;100.00;102540.09;5024679;28;20049;-68
2021/10/23 06:56:16;;;;;;;858.67;132.45;;;;;;;5.48;100.00;102542.78;5015549;28;20038;-67
2021/10/23 06:58:42;;;;;;;807.35;125.00;;;;;;;5.50;100.00;102542.03;5015889;28;20483;-69
2021/10/23 07:01:08;;;;;;;737.60;123.32;;;;;;;5.52;100.00;102545.66;5024141;28;20046;-67
2021/10/23 07:03:33;;;;;;;1019.08;139.15;;;;;;;5.55;100.00;102550.16;5026959;28;20021;-68
2021/10/23 07:05:58;;;;;;;675.50;124.68;;;;;;;5.59;100.00;102553.03;5023790;28;20108;-68
2021/10/23 07:08:24;;;;;;;806.03;127.72;;;;;;;5.68;100.00;102567.41;5015327;28;20034;-68
2021/10/23 07:10:49;;;;;;;720.90;124.60;;;;;;;5.75;100.00;102561.66;5025796;28;20473;-68
2021/10/23 07:13:14;;;;;;;810.55;130.02;;;;;;;5.85;100.00;102568.28;5024999;28;20029;-66
2021/10/23 07:15:39;;;;;;;716.42;125.40;;;;;;;5.96;100.00;102575.00;5024217;28;20025;-68
2021/10/23 07:18:05;;;;;;;730.75;129.85;;;;;;;5.98;100.00;102573.38;5025976;28;20036;-68
2021/10/23 07:20:32;;;;;;;661.00;120.50;;;;;;;6.03;100.00;102586.72;5018929;28;20093;-64
2021/10/23 07:22:58;;;;;;;789.75;130.13;;;;;;;6.08;100.00;102580.88;5017602;28;20156;-65
2021/10/23 07:25:24;;;;;;;643.97;119.82;;;;;;;6.09;100.00;102572.19;5020356;28;20116;-65
2021/10/23 07:27:49;;;;;;;673.03;118.78;;;;;;;6.10;100.00;102578.34;5022541;28;20030;-65
2021/10/23 07:30:14;;;;;;;544.22;117.32;;;;;;;6.14;100.00;102575.03;5025355;28;20495;-64
2021/10/23 07:32:41;;;;;;;544.38;120.57;;;;;;;6.20;100.00;102592.84;5028263;28;20473;-65
2021/10/23 07:35:08;;;;;;;528.55;115.75;;;;;;;6.29;100.00;102595.91;5025363;28;20022;-65
2021/10/23 07:37:34;;;;;;;468.73;114.10;;;;;;;6.33;100.00;102599.63;5026358;28;20036;-66
2021/10/23 07:40:02;;;;;;;462.50;114.82;;;;;;;6.37;100.00;102594.56;5022919;28;20364;-64
2021/10/23 07:42:28;;;;;;;499.70;116.07;;;;;;;6.38;100.00;102599.03;5021930;28;20041;-64
2021/10/23 07:44:54;;;;;;;446.35;114.47;;;;;;;6.47;100.00;102609.09;5020307;28;20081;-63
2021/10/23 07:47:21;;;;;;;444.67;114.13;;;;;;;6.54;100.00;102613.81;5023036;28;20026;-63
2021/10/23 07:49:46;;;;;;;418.92;108.88;;;;;;;6.60;100.00;102623.72;5019900;28;20124;-63
2021/10/23 07:52:12;;;;;;;407.52;109.43;;;;;;;6.59;100.00;102624.53;5022451;28;20038;-63
2021/10/23 07:54:37;;;;;;;416.88;108.88;;;;;;;6.65;100.00;102626.56;5022075;28;20469;-63
2021/10/23 07:57:04;;;;;;;407.90;111.50;;;;;;;6.71;100.00;102625.13;5019664;28;20026;-63
2021/10/23 07:59:30;;;;;;;389.48;108.18;;;;;;;6.73;100.00;102630.50;5018422;28;20046;-64
2021/10/23 08:02:00;;;;;;;389.30;105.38;;;;;;;6.75;100.00;102624.44;5021059;28;20540;-64
2021/10/23 08:04:26;;;;;;;379.65;103.70;;;;;;;6.83;100.00;102643.25;5019036;28;20041;-64
2021/10/23 08:06:51;;;;;;;356.55;104.07;;;;;;;6.89;100.00;102632.13;5018925;28;20061;-63
2021/10/23 08:09:17;;;;;;;378.17;104.43;;;;;;;6.95;100.00;102630.69;5017770;28;20026;-63
2021/10/23 08:11:43;;;;;;;356.15;98.40;;;;;;;7.03;100.00;102641.56;5022177;28;20025;-63
2021/10/23 08:14:10;;;;;;;369.25;102.65;;;;;;;7.06;100.00;102653.94;5022586;28;20033;-64
2021/10/23 08:16:36;;;;;;;370.48;104.20;;;;;;;7.11;100.00;102649.81;5024953;28;20067;-63
2021/10/23 08:19:02;;;;;;;357.55;103.72;;;;;;;7.15;100.00;102647.41;5013393;28;20384;-63
2021/10/23 08:21:27;;;;;;;332.35;98.22;;;;;;;7.18;100.00;102649.28;5021880;28;20017;-63
2021/10/23 08:23:52;;;;;;;344.13;99.82;;;;;;;7.24;100.00;102643.41;5013519;28;20607;-64
2021/10/23 08:26:18;;;;;;;350.70;102.28;;;;;;;7.29;100.00;102653.28;5013519;28;20026;-71
2021/10/23 08:28:43;;;;;;;365.58;104.47;;;;;;;7.37;100.00;102653.69;5013287;28;20038;-70
2021/10/23 08:31:08;;;;;;;331.63;99.10;;;;;;;7.46;100.00;102658.47;5013752;28;20172;-70
2021/10/23 08:33:34;;;;;;;349.13;99.97;;;;;;;7.55;100.00;102663.25;5013465;28;20049;-71
2021/10/23 08:35:59;;;;;;;332.23;101.43;;;;;;;7.59;100.00;102659.94;5013419;28;20030;-71
2021/10/23 08:38:25;;;;;;;309.08;96.65;;;;;;;7.59;100.00;102666.09;5013984;28;20030;-70
2021/10/23 08:40:52;;;;;;;312.85;98.57;;;;;;;7.63;100.00;102670.66;5021790;28;20024;-71
2021/10/23 08:43:19;;;;;;;291.92;94.78;;;;;;;7.63;100.00;102683.81;5024875;28;20029;-70
2021/10/23 08:45:45;;;;;;;281.30;93.80;;;;;;;7.60;100.00;102682.75;5023203;28;20045;-70
2021/10/23 08:48:12;;;;;;;277.10;92.22;;;;;;;7.66;100.00;102678.69;5013205;28;20069;-71
2021/10/23 08:50:38;;;;;;;276.55;92.32;;;;;;;7.70;100.00;102673.56;5013664;28;20030;-70
2021/10/23 08:53:04;;;;;;;274.52;90.13;;;;;;;7.75;100.00;102672.94;5022344;28;20030;-71
2021/10/23 08:55:30;;;;;;;251.68;88.97;;;;;;;7.78;100.00;102672.19;5023276;28;20111;-70
2021/10/23 08:57:55;;;;;;;244.35;83.82;;;;;;;7.80;100.00;102673.16;5017507;28;20026;-70
2021/10/23 09:00:21;;;;;;;247.95;88.05;;;;;;;7.83;100.00;102665.38;5021209;28;20046;-70
2021/10/23 09:02:48;;;;;;;248.85;87.60;;;;;;;7.91;100.00;102671.00;5024362;28;20066;-70
2021/10/23 09:05:15;;;;;;;236.93;87.82;;;;;;;7.98;100.00;102671.34;5021941;28;20068;-70
2021/10/23 09:07:42;;;;;;;233.27;87.40;;;;;;;8.07;100.00;102667.28;5023440;28;20431;-70
2021/10/23 09:10:07;;;;;;;222.10;83.75;;;;;;;8.16;100.00;102670.34;5022547;28;20025;-70
2021/10/23 09:12:36;;;;;;;205.65;80.82;;;;;;;8.18;100.00;102668.66;5013144;28;20531;-70
2021/10/23 09:15:17;;;;;;;188.48;77.10;;;;;;;8.25;100.00;102668.09;5012886;28;20037;-70
2021/10/23 09:17:49;;;;;;;165.63;68.80;;;;;;;8.25;100.00;102677.75;5012821;28;20034;-70
2021/10/23 09:20:17;;;;;;;158.13;67.88;;;;;;;8.28;100.00;102681.41;5012973;28;20481;-71
2021/10/23 09:22:44;;;;;;;159.90;70.07;;;;;;;8.30;100.00;102685.00;5013012;28;20022;-71
2021/10/23 09:25:22;;;;;;;149.85;65.50;;;;;;;8.33;100.00;102682.50;5013121;28;20117;-71
2021/10/23 09:28:12;;;;;;;151.73;63.65;;;;;;;8.40;100.00;102680.13;5012695;28;20061;-70
2021/10/23 09:30:40;;;;;;;138.80;64.43;;;;;;;8.40;100.00;102685.41;5020958;28;20580;-70
2021/10/23 09:33:11;;;;;;;139.70;64.47;;;;;;;8.49;100.00;102685.81;5022949;28;20036;-71
2021/10/23 09:35:41;;;;;;;143.50;63.00;;;;;;;8.55;100.00;102691.38;5016135;28;20057;-63
2021/10/23 09:38:12;;;;;;;128.93;59.83;;;;;;;8.54;100.00;102694.81;5022063;28;20392;-63
2021/10/23 09:40:39;;;;;;;123.75;57.20;;;;;;;8.54;100.00;102685.16;5016633;28;20029;-64
2021/10/23 09:43:15;;;;;;;122.38;57.30;;;;;;;8.55;100.00;102688.72;5019847;28;20026;-64
2021/10/23 09:45:55;;;;;;;122.30;55.83;;;;;;;8.62;100.00;102697.78;5022046;28;20346;-63
2021/10/23 09:48:28;;;;;;;126.18;55.85;;;;;;;8.71;100.00;102698.19;5021222;28;20056;-68
2021/10/23 09:51:12;;;;;;;108.25;52.88;;;;;;;8.76;100.00;102695.72;5023321;28;20540;-68
2021/10/23 09:53:38;;;;;;;107.28;55.50;;;;;;;8.79;100.00;102693.22;5019270;28;20036;-71
2021/10/23 09:56:10;;;;;;;105.18;52.05;;;;;;;8.87;100.00;102689.16;5023633;28;20065;-70
2021/10/23 09:58:35;;;;;;;106.10;53.08;;;;;;;8.93;100.00;102692.03;5021839;28;20097;-69
2021/10/23 10:01:01;;;;;;;99.95;51.58;;;;;;;9.01;100.00;102695.91;5023244;28;20052;-70
2021/10/23 10:03:29;;;;;;;100.55;50.65;;;;;;;9.06;100.00;102701.34;5020828;28;20038;-70
2021/10/23 10:05:56;;;;;;;100.38;50.03;;;;;;;9.10;100.00;102702.34;5024170;28;20104;-70
2021/10/23 10:08:22;;;;;;;100.25;51.10;;;;;;;9.16;100.00;102700.88;5016812;28;20025;-70
2021/10/23 10:10:49;;;;;;;93.43;49.45;;;;;;;9.22;100.00;102703.75;5023642;28;20492;-70
2021/10/23 10:13:23;;;;;;;92.35;47.15;;;;;;;9.29;100.00;102714.53;5021365;28;20100;-70
2021/10/23 10:15:58;;;;;;;92.68;48.50;;;;;;;9.33;100.00;102704.16;5024212;28;20036;-70
2021/10/23 10:18:24;;;;;;;91.65;46.95;;;;;;;9.39;100.00;102706.13;5017277;28;20500;-68
2021/10/23 10:20:55;;;;;;;84.43;45.08;;;;;;;9.40;100.00;102703.56;5012575;28;20022;-70
2021/10/23 10:23:29;;;;;;;91.82;47.28;;;;;;;9.50;100.00;102711.84;5019232;28;20022;-71
2021/10/23 10:26:23;;;;;;;82.28;45.90;;;;;;;9.65;100.00;102708.88;5025588;28;20026;-71
2021/10/23 10:29:27;;;;;;;76.57;42.97;;;;;;;9.62;100.00;102714.06;5027068;28;20417;-71
2021/10/23 10:37:41;;;;;;;75.18;41.58;;;;;;;9.57;100.00;102706.84;5022152;28;20038;-71
2021/10/23 10:42:51;;;;;;;76.25;41.90;;;;;;;9.68;100.00;102704.59;5019824;28;20025;-70
2021/10/23 10:45:40;;;;;;;69.22;38.42;;;;;;;9.76;100.00;102707.56;5021759;28;20042;-70
2021/10/23 10:48:25;;;;;;;68.03;38.65;;;;;;;9.85;100.00;102704.34;5025650;28;20482;-70
2021/10/23 10:50:59;;;;;;;68.10;39.53;;;;;;;10.08;100.00;102705.19;5025547;28;20427;-70
2021/10/23 10:53:29;;;;;;;66.63;37.53;;;;;;;10.35;100.00;102707.94;5025947;28;20488;-70
2021/10/23 10:55:58;;;;;;;60.47;35.20;;;;;;;10.57;100.00;102695.44;5006639;28;20065;-70
2021/10/23 10:58:56;;;;;;;54.17;31.65;;;;;;;10.75;100.00;102701.38;5021357;28;20042;-71
2021/10/23 11:01:28;;;;;;;59.50;33.70;;;;;;;10.69;100.00;102702.91;5025564;28;20060;-70
2021/10/23 11:04:06;;;;;;;;;;;;;;;10.90;100.00;102697.44;5023407;28;20179;-71
2021/10/23 11:06:34;;;;;;;51.63;28.80;;;;;;;10.82;100.00;102697.19;5022399;28;19991;-70